sensor_id;sensor_type;location;lat;lon;timestamp;P1;durP1;ratioP1;P2;durP2;ratioP2
37355;SDS011;48747;50.250;18.848;2022-10-16T00:01:19;23.50;;;14.68;;
37355;SDS011;48747;50.250;18.848;2022-10-16T00:03:35;22.30;;;14.15;;
37355;SDS011;48747;50.250;18.848;2022-10-16T00:05:37;23.62;;;15.78;;
37355;SDS011;48747;50.250;18.848;2022-10-16T00:07:47;25.45;;;14.13;;
37355;SDS011;48747;50.250;18.848;2022-10-16T00:09:53;23.87;;;15.32;;
37355;SDS011;48747;50.250;18.848;2022-10-16T00:11:58;22.42;;;15.63;;
37355;SDS011;48747;50.250;18.848;2022-10-16T00:14:13;22.85;;;15.45;;
37355;SDS011;48747;50.250;18.848;2022-10-16T00:16:21;26.25;;;15.38;;
37355;SDS011;48747;50.250;18.848;2022-10-16T00:18:18;23.80;;;15.45;;
37355;SDS011;48747;50.250;18.848;2022-10-16T00:20:24;24.67;;;15.43;;
37355;SDS011;48747;50.250;18.848;2022-10-16T00:22:33;21.62;;;15.35;;
37355;SDS011;48747;50.250;18.848;2022-10-16T00:24:43;22.45;;;15.63;;
37355;SDS011;48747;50.250;18.848;2022-10-16T00:26:53;24.02;;;15.15;;
37355;SDS011;48747;50.250;18.848;2022-10-16T00:31:12;24.23;;;13.72;;
37355;SDS011;48747;50.250;18.848;2022-10-16T00:33:17;23.35;;;15.30;;
37355;SDS011;48747;50.250;18.848;2022-10-16T00:38:23;23.20;;;15.00;;
37355;SDS011;48747;50.250;18.848;2022-10-16T00:40:30;24.30;;;16.05;;
37355;SDS011;48747;50.250;18.848;2022-10-16T00:42:35;26.15;;;15.60;;
37355;SDS011;48747;50.250;18.848;2022-10-16T00:46:54;22.73;;;15.45;;
37355;SDS011;48747;50.250;18.848;2022-10-16T00:49:01;25.72;;;16.90;;
37355;SDS011;48747;50.250;18.848;2022-10-16T00:53:25;24.00;;;15.48;;
37355;SDS011;48747;50.250;18.848;2022-10-16T00:55:35;24.95;;;15.08;;
37355;SDS011;48747;50.250;18.848;2022-10-16T00:57:57;23.67;;;15.40;;
37355;SDS011;48747;50.250;18.848;2022-10-16T01:02:16;20.90;;;15.08;;
37355;SDS011;48747;50.250;18.848;2022-10-16T01:04:19;23.73;;;15.78;;
37355;SDS011;48747;50.250;18.848;2022-10-16T01:06:26;24.65;;;15.63;;
37355;SDS011;48747;50.250;18.848;2022-10-16T01:11:03;22.62;;;15.20;;
37355;SDS011;48747;50.250;18.848;2022-10-16T01:15:35;19.23;;;14.50;;
37355;SDS011;48747;50.250;18.848;2022-10-16T01:19:58;20.37;;;14.18;;
37355;SDS011;48747;50.250;18.848;2022-10-16T01:21:59;22.35;;;14.53;;
37355;SDS011;48747;50.250;18.848;2022-10-16T01:31:53;23.15;;;14.78;;
37355;SDS011;48747;50.250;18.848;2022-10-16T01:33:56;31.45;;;17.70;;
37355;SDS011;48747;50.250;18.848;2022-10-16T01:36:03;29.07;;;18.82;;
37355;SDS011;48747;50.250;18.848;2022-10-16T01:39:15;31.73;;;18.40;;
37355;SDS011;48747;50.250;18.848;2022-10-16T01:40:38;26.87;;;16.62;;
37355;SDS011;48747;50.250;18.848;2022-10-16T01:42:46;31.12;;;17.73;;
37355;SDS011;48747;50.250;18.848;2022-10-16T01:44:51;31.37;;;18.48;;
37355;SDS011;48747;50.250;18.848;2022-10-16T01:47:00;27.35;;;16.93;;
37355;SDS011;48747;50.250;18.848;2022-10-16T01:49:10;31.10;;;17.35;;
37355;SDS011;48747;50.250;18.848;2022-10-16T01:51:15;23.90;;;15.70;;
37355;SDS011;48747;50.250;18.848;2022-10-16T01:53:28;27.00;;;16.65;;
37355;SDS011;48747;50.250;18.848;2022-10-16T01:55:32;27.25;;;16.80;;
37355;SDS011;48747;50.250;18.848;2022-10-16T01:57:52;27.25;;;16.15;;
37355;SDS011;48747;50.250;18.848;2022-10-16T02:00:04;30.10;;;15.40;;
37355;SDS011;48747;50.250;18.848;2022-10-16T02:01:56;28.92;;;16.90;;
37355;SDS011;48747;50.250;18.848;2022-10-16T02:04:09;27.35;;;17.02;;
37355;SDS011;48747;50.250;18.848;2022-10-16T02:06:40;33.58;;;18.52;;
37355;SDS011;48747;50.250;18.848;2022-10-16T02:10:39;29.05;;;17.75;;
37355;SDS011;48747;50.250;18.848;2022-10-16T02:12:49;31.33;;;18.52;;
37355;SDS011;48747;50.250;18.848;2022-10-16T02:14:55;34.67;;;19.17;;
37355;SDS011;48747;50.250;18.848;2022-10-16T02:17:09;31.05;;;19.07;;
37355;SDS011;48747;50.250;18.848;2022-10-16T02:19:06;34.05;;;18.95;;
37355;SDS011;48747;50.250;18.848;2022-10-16T02:21:41;33.90;;;18.48;;
37355;SDS011;48747;50.250;18.848;2022-10-16T02:23:29;28.07;;;18.40;;
37355;SDS011;48747;50.250;18.848;2022-10-16T02:25:35;30.05;;;18.70;;
37355;SDS011;48747;50.250;18.848;2022-10-16T02:27:41;30.45;;;18.48;;
37355;SDS011;48747;50.250;18.848;2022-10-16T02:29:59;31.90;;;19.70;;
37355;SDS011;48747;50.250;18.848;2022-10-16T02:32:03;30.65;;;19.27;;
37355;SDS011;48747;50.250;18.848;2022-10-16T02:34:09;35.92;;;19.85;;
37355;SDS011;48747;50.250;18.848;2022-10-16T02:36:25;33.25;;;19.62;;
37355;SDS011;48747;50.250;18.848;2022-10-16T02:38:35;36.60;;;20.95;;
37355;SDS011;48747;50.250;18.848;2022-10-16T02:42:49;39.27;;;20.90;;
37355;SDS011;48747;50.250;18.848;2022-10-16T02:45:08;36.53;;;20.48;;
37355;SDS011;48747;50.250;18.848;2022-10-16T02:46:59;34.55;;;20.17;;
37355;SDS011;48747;50.250;18.848;2022-10-16T02:49:03;31.00;;;19.20;;
37355;SDS011;48747;50.250;18.848;2022-10-16T02:51:23;30.77;;;18.40;;
37355;SDS011;48747;50.250;18.848;2022-10-16T02:53:24;30.72;;;19.17;;
37355;SDS011;48747;50.250;18.848;2022-10-16T02:55:26;31.48;;;19.40;;
37355;SDS011;48747;50.250;18.848;2022-10-16T02:57:33;32.42;;;19.32;;
37355;SDS011;48747;50.250;18.848;2022-10-16T02:59:38;31.42;;;20.10;;
37355;SDS011;48747;50.250;18.848;2022-10-16T03:01:58;30.00;;;20.08;;
37355;SDS011;48747;50.250;18.848;2022-10-16T03:03:58;32.63;;;20.52;;
37355;SDS011;48747;50.250;18.848;2022-10-16T03:05:57;31.40;;;20.05;;
37355;SDS011;48747;50.250;18.848;2022-10-16T03:08:07;35.52;;;21.17;;
37355;SDS011;48747;50.250;18.848;2022-10-16T03:10:15;26.23;;;16.73;;
37355;SDS011;48747;50.250;18.848;2022-10-16T03:12:26;28.30;;;20.08;;
37355;SDS011;48747;50.250;18.848;2022-10-16T03:16:36;34.03;;;20.48;;
37355;SDS011;48747;50.250;18.848;2022-10-16T03:18:52;31.85;;;22.05;;
37355;SDS011;48747;50.250;18.848;2022-10-16T03:20:57;35.05;;;21.82;;
37355;SDS011;48747;50.250;18.848;2022-10-16T03:23:01;32.83;;;21.93;;
37355;SDS011;48747;50.250;18.848;2022-10-16T03:25:13;36.93;;;22.85;;
37355;SDS011;48747;50.250;18.848;2022-10-16T03:27:16;31.68;;;22.15;;
37355;SDS011;48747;50.250;18.848;2022-10-16T03:29:20;34.18;;;21.90;;
37355;SDS011;48747;50.250;18.848;2022-10-16T03:31:36;31.57;;;21.90;;
37355;SDS011;48747;50.250;18.848;2022-10-16T03:33:34;33.65;;;22.05;;
37355;SDS011;48747;50.250;18.848;2022-10-16T03:35:40;31.20;;;21.85;;
37355;SDS011;48747;50.250;18.848;2022-10-16T03:37:58;34.30;;;22.67;;
37355;SDS011;48747;50.250;18.848;2022-10-16T03:40:11;30.00;;;20.80;;
37355;SDS011;48747;50.250;18.848;2022-10-16T03:42:12;30.80;;;20.70;;
37355;SDS011;48747;50.250;18.848;2022-10-16T03:44:20;34.73;;;21.00;;
37355;SDS011;48747;50.250;18.848;2022-10-16T03:46:40;29.40;;;19.87;;
37355;SDS011;48747;50.250;18.848;2022-10-16T03:48:35;32.35;;;20.43;;
37355;SDS011;48747;50.250;18.848;2022-10-16T03:50:44;37.40;;;21.25;;
37355;SDS011;48747;50.250;18.848;2022-10-16T03:52:50;29.00;;;18.70;;
37355;SDS011;48747;50.250;18.848;2022-10-16T03:55:03;29.90;;;19.20;;
37355;SDS011;48747;50.250;18.848;2022-10-16T03:57:07;28.52;;;18.30;;
37355;SDS011;48747;50.250;18.848;2022-10-16T03:59:26;29.67;;;18.37;;
37355;SDS011;48747;50.250;18.848;2022-10-16T04:01:20;25.72;;;17.87;;
37355;SDS011;48747;50.250;18.848;2022-10-16T04:03:35;27.00;;;17.62;;
37355;SDS011;48747;50.250;18.848;2022-10-16T04:05:34;29.85;;;18.30;;
37355;SDS011;48747;50.250;18.848;2022-10-16T04:09:52;28.17;;;18.02;;
37355;SDS011;48747;50.250;18.848;2022-10-16T04:16:11;26.87;;;17.32;;
37355;SDS011;48747;50.250;18.848;2022-10-16T04:18:18;30.17;;;18.00;;
37355;SDS011;48747;50.250;18.848;2022-10-16T04:20:29;25.82;;;17.62;;
37355;SDS011;48747;50.250;18.848;2022-10-16T04:22:54;27.07;;;17.80;;
37355;SDS011;48747;50.250;18.848;2022-10-16T04:26:46;27.37;;;17.05;;
37355;SDS011;48747;50.250;18.848;2022-10-16T04:29:00;30.02;;;18.73;;
37355;SDS011;48747;50.250;18.848;2022-10-16T04:40:22;28.80;;;17.55;;
37355;SDS011;48747;50.250;18.848;2022-10-16T04:42:37;31.93;;;18.92;;
37355;SDS011;48747;50.250;18.848;2022-10-16T04:44:33;24.92;;;16.77;;
37355;SDS011;48747;50.250;18.848;2022-10-16T04:46:43;27.82;;;17.82;;
37355;SDS011;48747;50.250;18.848;2022-10-16T04:49:02;27.67;;;17.07;;
37355;SDS011;48747;50.250;18.848;2022-10-16T04:50:55;28.38;;;18.42;;
37355;SDS011;48747;50.250;18.848;2022-10-16T04:53:03;33.02;;;19.02;;
37355;SDS011;48747;50.250;18.848;2022-10-16T04:55:19;29.12;;;19.20;;
37355;SDS011;48747;50.250;18.848;2022-10-16T04:57:17;29.05;;;19.62;;
37355;SDS011;48747;50.250;18.848;2022-10-16T05:03:39;34.75;;;20.23;;
37355;SDS011;48747;50.250;18.848;2022-10-16T05:05:46;32.25;;;20.65;;
37355;SDS011;48747;50.250;18.848;2022-10-16T05:07:55;30.32;;;21.00;;
37355;SDS011;48747;50.250;18.848;2022-10-16T05:10:03;29.67;;;20.35;;
37355;SDS011;48747;50.250;18.848;2022-10-16T05:14:19;31.23;;;20.17;;
37355;SDS011;48747;50.250;18.848;2022-10-16T05:16:25;29.05;;;19.10;;
37355;SDS011;48747;50.250;18.848;2022-10-16T05:18:32;35.00;;;21.27;;
37355;SDS011;48747;50.250;18.848;2022-10-16T05:22:49;29.87;;;20.40;;
37355;SDS011;48747;50.250;18.848;2022-10-16T05:24:52;28.90;;;19.87;;
37355;SDS011;48747;50.250;18.848;2022-10-16T05:27:05;33.78;;;20.48;;
37355;SDS011;48747;50.250;18.848;2022-10-16T05:29:13;29.55;;;20.57;;
37355;SDS011;48747;50.250;18.848;2022-10-16T05:31:13;32.50;;;20.45;;
37355;SDS011;48747;50.250;18.848;2022-10-16T05:33:20;27.62;;;19.95;;
37355;SDS011;48747;50.250;18.848;2022-10-16T05:35:35;28.62;;;19.40;;
37355;SDS011;48747;50.250;18.848;2022-10-16T05:37:33;33.33;;;19.42;;
37355;SDS011;48747;50.250;18.848;2022-10-16T05:39:50;31.52;;;18.57;;
37355;SDS011;48747;50.250;18.848;2022-10-16T05:42:03;31.90;;;19.80;;
37355;SDS011;48747;50.250;18.848;2022-10-16T05:44:12;31.05;;;18.50;;
37355;SDS011;48747;50.250;18.848;2022-10-16T05:46:04;31.00;;;19.30;;
37355;SDS011;48747;50.250;18.848;2022-10-16T05:48:10;33.90;;;19.62;;
37355;SDS011;48747;50.250;18.848;2022-10-16T05:50:14;29.27;;;18.25;;
37355;SDS011;48747;50.250;18.848;2022-10-16T05:52:44;27.05;;;17.37;;
37355;SDS011;48747;50.250;18.848;2022-10-16T05:56:45;25.97;;;17.35;;
37355;SDS011;48747;50.250;18.848;2022-10-16T06:01:03;29.23;;;18.20;;
37355;SDS011;48747;50.250;18.848;2022-10-16T06:03:12;25.10;;;17.77;;
37355;SDS011;48747;50.250;18.848;2022-10-16T06:05:14;27.62;;;18.80;;
37355;SDS011;48747;50.250;18.848;2022-10-16T06:07:29;28.95;;;18.82;;
37355;SDS011;48747;50.250;18.848;2022-10-16T06:09:29;26.52;;;18.40;;
37355;SDS011;48747;50.250;18.848;2022-10-16T06:11:41;30.70;;;18.52;;
37355;SDS011;48747;50.250;18.848;2022-10-16T06:13:48;26.35;;;18.20;;
37355;SDS011;48747;50.250;18.848;2022-10-16T06:18:08;28.73;;;18.60;;
37355;SDS011;48747;50.250;18.848;2022-10-16T06:20:15;26.82;;;18.17;;
37355;SDS011;48747;50.250;18.848;2022-10-16T06:26:40;26.70;;;16.95;;
37355;SDS011;48747;50.250;18.848;2022-10-16T06:28:47;28.23;;;16.37;;
37355;SDS011;48747;50.250;18.848;2022-10-16T06:38:47;30.27;;;17.70;;
37355;SDS011;48747;50.250;18.848;2022-10-16T06:40:57;28.23;;;17.25;;
37355;SDS011;48747;50.250;18.848;2022-10-16T06:43:00;23.42;;;15.78;;
37355;SDS011;48747;50.250;18.848;2022-10-16T06:45:05;30.80;;;17.57;;
37355;SDS011;48747;50.250;18.848;2022-10-16T06:49:24;26.82;;;15.80;;
37355;SDS011;48747;50.250;18.848;2022-10-16T06:51:29;25.23;;;16.25;;
37355;SDS011;48747;50.250;18.848;2022-10-16T06:53:34;24.52;;;16.60;;
37355;SDS011;48747;50.250;18.848;2022-10-16T06:55:41;24.10;;;16.62;;
37355;SDS011;48747;50.250;18.848;2022-10-16T06:57:43;24.63;;;16.90;;
37355;SDS011;48747;50.250;18.848;2022-10-16T06:59:57;26.30;;;16.40;;
37355;SDS011;48747;50.250;18.848;2022-10-16T07:02:04;30.85;;;16.50;;
37355;SDS011;48747;50.250;18.848;2022-10-16T07:04:06;24.07;;;15.38;;
37355;SDS011;48747;50.250;18.848;2022-10-16T07:06:21;23.22;;;16.97;;
37355;SDS011;48747;50.250;18.848;2022-10-16T07:10:27;23.10;;;15.68;;
37355;SDS011;48747;50.250;18.848;2022-10-16T07:12:36;24.60;;;14.30;;
37355;SDS011;48747;50.250;18.848;2022-10-16T07:14:42;25.52;;;15.70;;
37355;SDS011;48747;50.250;18.848;2022-10-16T07:16:47;22.48;;;15.53;;
37355;SDS011;48747;50.250;18.848;2022-10-16T07:19:08;23.42;;;15.35;;
37355;SDS011;48747;50.250;18.848;2022-10-16T07:21:16;23.57;;;15.03;;
37355;SDS011;48747;50.250;18.848;2022-10-16T07:23:25;27.93;;;15.83;;
37355;SDS011;48747;50.250;18.848;2022-10-16T07:27:46;26.00;;;13.98;;
37355;SDS011;48747;50.250;18.848;2022-10-16T07:29:57;23.07;;;14.38;;
37355;SDS011;48747;50.250;18.848;2022-10-16T07:32:04;25.20;;;14.20;;
37355;SDS011;48747;50.250;18.848;2022-10-16T07:34:15;22.73;;;13.93;;
37355;SDS011;48747;50.250;18.848;2022-10-16T07:36:18;24.32;;;13.55;;
37355;SDS011;48747;50.250;18.848;2022-10-16T15:57:07;25.85;;;16.60;;
37355;SDS011;48747;50.250;18.848;2022-10-16T15:59:11;27.20;;;17.12;;
37355;SDS011;48747;50.250;18.848;2022-10-16T16:01:20;29.32;;;19.92;;
37355;SDS011;48747;50.250;18.848;2022-10-16T16:03:28;27.17;;;17.73;;
37355;SDS011;48747;50.250;18.848;2022-10-16T16:07:53;21.82;;;15.40;;
37355;SDS011;48747;50.250;18.848;2022-10-16T16:09:58;23.52;;;14.73;;
37355;SDS011;48747;50.250;18.848;2022-10-16T16:12:21;19.82;;;14.23;;
37355;SDS011;48747;50.250;18.848;2022-10-16T16:16:42;27.02;;;14.00;;
37355;SDS011;48747;50.250;18.848;2022-10-16T16:18:34;21.17;;;13.58;;
37355;SDS011;48747;50.250;18.848;2022-10-16T16:20:43;23.07;;;14.47;;
37355;SDS011;48747;50.250;18.848;2022-10-16T16:24:58;22.58;;;14.10;;
37355;SDS011;48747;50.250;18.848;2022-10-16T16:27:32;23.70;;;15.58;;
37355;SDS011;48747;50.250;18.848;2022-10-16T16:29:39;25.97;;;17.02;;
37355;SDS011;48747;50.250;18.848;2022-10-16T16:31:43;24.73;;;15.87;;
37355;SDS011;48747;50.250;18.848;2022-10-16T16:33:46;24.67;;;16.05;;
37355;SDS011;48747;50.250;18.848;2022-10-16T16:36:02;23.57;;;15.75;;
37355;SDS011;48747;50.250;18.848;2022-10-16T16:40:25;24.02;;;16.55;;
37355;SDS011;48747;50.250;18.848;2022-10-16T16:44:39;28.07;;;18.80;;
37355;SDS011;48747;50.250;18.848;2022-10-16T16:46:47;35.08;;;21.33;;
37355;SDS011;48747;50.250;18.848;2022-10-16T16:48:53;59.65;;;28.83;;
37355;SDS011;48747;50.250;18.848;2022-10-16T16:50:56;71.72;;;35.60;;
37355;SDS011;48747;50.250;18.848;2022-10-16T16:55:20;68.57;;;37.67;;
37355;SDS011;48747;50.250;18.848;2022-10-16T16:57:16;144.87;;;79.05;;
37355;SDS011;48747;50.250;18.848;2022-10-16T16:59:22;62.30;;;35.52;;
37355;SDS011;48747;50.250;18.848;2022-10-16T17:01:28;45.78;;;25.77;;
37355;SDS011;48747;50.250;18.848;2022-10-16T17:03:35;45.43;;;25.45;;
37355;SDS011;48747;50.250;18.848;2022-10-16T17:05:49;40.67;;;24.23;;
37355;SDS011;48747;50.250;18.848;2022-10-16T17:08:03;35.23;;;21.93;;
37355;SDS011;48747;50.250;18.848;2022-10-16T17:12:29;50.60;;;29.92;;
37355;SDS011;48747;50.250;18.848;2022-10-16T17:14:49;33.58;;;22.02;;
37355;SDS011;48747;50.250;18.848;2022-10-16T17:53:28;36.70;;;23.42;;
37355;SDS011;48747;50.250;18.848;2022-10-16T17:55:43;37.17;;;23.38;;
37355;SDS011;48747;50.250;18.848;2022-10-16T17:57:52;43.92;;;24.10;;
37355;SDS011;48747;50.250;18.848;2022-10-16T18:00:07;39.90;;;24.20;;
37355;SDS011;48747;50.250;18.848;2022-10-16T18:04:50;44.73;;;28.00;;
37355;SDS011;48747;50.250;18.848;2022-10-16T18:06:59;41.30;;;25.92;;
37355;SDS011;48747;50.250;18.848;2022-10-16T18:08:59;38.85;;;24.85;;
37355;SDS011;48747;50.250;18.848;2022-10-16T18:11:04;39.40;;;25.20;;
37355;SDS011;48747;50.250;18.848;2022-10-16T18:13:13;34.40;;;23.67;;
37355;SDS011;48747;50.250;18.848;2022-10-16T18:15:26;40.28;;;25.12;;
37355;SDS011;48747;50.250;18.848;2022-10-16T18:17:21;36.50;;;24.55;;
37355;SDS011;48747;50.250;18.848;2022-10-16T18:19:31;41.00;;;25.25;;
37355;SDS011;48747;50.250;18.848;2022-10-16T18:21:31;39.23;;;24.67;;
37355;SDS011;48747;50.250;18.848;2022-10-16T18:23:54;50.05;;;30.35;;
37355;SDS011;48747;50.250;18.848;2022-10-16T18:25:49;65.42;;;38.95;;
37355;SDS011;48747;50.250;18.848;2022-10-16T18:27:52;52.50;;;32.65;;
37355;SDS011;48747;50.250;18.848;2022-10-16T18:30:01;66.20;;;39.78;;
37355;SDS011;48747;50.250;18.848;2022-10-16T18:32:08;81.70;;;47.30;;
37355;SDS011;48747;50.250;18.848;2022-10-16T18:34:29;71.77;;;43.45;;
37355;SDS011;48747;50.250;18.848;2022-10-16T18:36:20;81.05;;;48.00;;
37355;SDS011;48747;50.250;18.848;2022-10-16T18:38:27;63.98;;;38.95;;
37355;SDS011;48747;50.250;18.848;2022-10-16T18:40:30;83.07;;;51.35;;
37355;SDS011;48747;50.250;18.848;2022-10-16T18:42:50;55.08;;;35.25;;
37355;SDS011;48747;50.250;18.848;2022-10-16T18:44:41;56.45;;;36.45;;
37355;SDS011;48747;50.250;18.848;2022-10-16T18:47:06;71.75;;;46.80;;
37355;SDS011;48747;50.250;18.848;2022-10-16T18:48:59;54.88;;;36.30;;
37355;SDS011;48747;50.250;18.848;2022-10-16T18:51:16;48.58;;;33.28;;
37355;SDS011;48747;50.250;18.848;2022-10-16T18:53:20;44.50;;;28.75;;
37355;SDS011;48747;50.250;18.848;2022-10-16T18:55:33;46.68;;;30.65;;
37355;SDS011;48747;50.250;18.848;2022-10-16T18:59:48;50.83;;;32.10;;
37355;SDS011;48747;50.250;18.848;2022-10-16T19:02:14;44.20;;;28.75;;
37355;SDS011;48747;50.250;18.848;2022-10-16T19:06:17;50.00;;;33.00;;
37355;SDS011;48747;50.250;18.848;2022-10-16T19:08:29;65.37;;;40.88;;
37355;SDS011;48747;50.250;18.848;2022-10-16T19:10:30;66.82;;;37.05;;
37355;SDS011;48747;50.250;18.848;2022-10-16T19:12:35;48.75;;;30.48;;
37355;SDS011;48747;50.250;18.848;2022-10-16T19:14:41;42.55;;;26.65;;
37355;SDS011;48747;50.250;18.848;2022-10-16T19:18:54;40.48;;;26.05;;
37355;SDS011;48747;50.250;18.848;2022-10-16T19:21:02;41.63;;;24.57;;
37355;SDS011;48747;50.250;18.848;2022-10-16T19:23:11;49.53;;;25.25;;
37355;SDS011;48747;50.250;18.848;2022-10-16T19:25:15;37.63;;;23.02;;
37355;SDS011;48747;50.250;18.848;2022-10-16T19:27:21;32.28;;;22.20;;
37355;SDS011;48747;50.250;18.848;2022-10-16T19:29:31;34.60;;;21.97;;
37355;SDS011;48747;50.250;18.848;2022-10-16T19:31:37;32.40;;;21.00;;
37355;SDS011;48747;50.250;18.848;2022-10-16T19:41:35;32.38;;;20.15;;
37355;SDS011;48747;50.250;18.848;2022-10-16T19:43:41;34.20;;;19.45;;
37355;SDS011;48747;50.250;18.848;2022-10-16T19:45:51;32.63;;;19.85;;
37355;SDS011;48747;50.250;18.848;2022-10-16T19:52:24;34.60;;;21.40;;
37355;SDS011;48747;50.250;18.848;2022-10-16T19:54:33;35.38;;;21.42;;
37355;SDS011;48747;50.250;18.848;2022-10-16T19:56:52;33.80;;;22.17;;
37355;SDS011;48747;50.250;18.848;2022-10-16T19:58:57;34.38;;;21.70;;
37355;SDS011;48747;50.250;18.848;2022-10-16T20:01:04;38.90;;;23.27;;
37355;SDS011;48747;50.250;18.848;2022-10-16T20:05:20;37.35;;;23.75;;
37355;SDS011;48747;50.250;18.848;2022-10-16T20:10:00;39.23;;;23.90;;
37355;SDS011;48747;50.250;18.848;2022-10-16T20:12:05;38.55;;;24.32;;
37355;SDS011;48747;50.250;18.848;2022-10-16T20:14:08;35.63;;;23.80;;
37355;SDS011;48747;50.250;18.848;2022-10-16T20:18:40;36.85;;;23.83;;
37355;SDS011;48747;50.250;18.848;2022-10-16T20:20:49;34.25;;;22.13;;
37355;SDS011;48747;50.250;18.848;2022-10-16T20:33:24;38.17;;;23.32;;
37355;SDS011;48747;50.250;18.848;2022-10-16T20:35:33;35.00;;;23.38;;
37355;SDS011;48747;50.250;18.848;2022-10-16T20:37:40;37.25;;;22.93;;
37355;SDS011;48747;50.250;18.848;2022-10-16T20:39:48;35.75;;;23.30;;
37355;SDS011;48747;50.250;18.848;2022-10-16T20:41:50;35.98;;;22.62;;
37355;SDS011;48747;50.250;18.848;2022-10-16T20:43:57;32.93;;;22.60;;
37355;SDS011;48747;50.250;18.848;2022-10-16T20:46:02;40.35;;;23.50;;
37355;SDS011;48747;50.250;18.848;2022-10-16T20:48:09;35.43;;;23.22;;
37355;SDS011;48747;50.250;18.848;2022-10-16T20:50:21;35.83;;;23.47;;
37355;SDS011;48747;50.250;18.848;2022-10-16T20:52:23;36.30;;;23.32;;
37355;SDS011;48747;50.250;18.848;2022-10-16T20:54:29;34.65;;;23.15;;
37355;SDS011;48747;50.250;18.848;2022-10-16T20:56:34;34.43;;;23.02;;
37355;SDS011;48747;50.250;18.848;2022-10-16T20:58:41;37.67;;;23.80;;
37355;SDS011;48747;50.250;18.848;2022-10-16T21:00:53;36.20;;;24.32;;
37355;SDS011;48747;50.250;18.848;2022-10-16T21:02:52;37.40;;;23.77;;
37355;SDS011;48747;50.250;18.848;2022-10-16T21:04:57;36.60;;;24.63;;
37355;SDS011;48747;50.250;18.848;2022-10-16T21:07:04;34.98;;;23.38;;
37355;SDS011;48747;50.250;18.848;2022-10-16T21:09:12;42.25;;;24.70;;
37355;SDS011;48747;50.250;18.848;2022-10-16T21:11:19;38.42;;;25.32;;
37355;SDS011;48747;50.250;18.848;2022-10-16T21:13:21;39.40;;;24.30;;
37355;SDS011;48747;50.250;18.848;2022-10-16T21:15:37;37.95;;;23.73;;
37355;SDS011;48747;50.250;18.848;2022-10-16T21:17:39;32.90;;;23.45;;
37355;SDS011;48747;50.250;18.848;2022-10-16T21:19:48;38.08;;;25.10;;
37355;SDS011;48747;50.250;18.848;2022-10-16T21:21:51;40.25;;;24.20;;
37355;SDS011;48747;50.250;18.848;2022-10-16T21:23:56;36.73;;;22.58;;
37355;SDS011;48747;50.250;18.848;2022-10-16T21:26:04;38.83;;;23.45;;
37355;SDS011;48747;50.250;18.848;2022-10-16T21:28:10;37.98;;;23.20;;
37355;SDS011;48747;50.250;18.848;2022-10-16T21:30:16;37.30;;;21.68;;
37355;SDS011;48747;50.250;18.848;2022-10-16T21:32:22;36.77;;;22.65;;
37355;SDS011;48747;50.250;18.848;2022-10-16T21:36:40;34.38;;;21.50;;
37355;SDS011;48747;50.250;18.848;2022-10-16T21:38:45;34.70;;;21.73;;
37355;SDS011;48747;50.250;18.848;2022-10-16T21:40:50;36.60;;;23.73;;
37355;SDS011;48747;50.250;18.848;2022-10-16T21:42:56;36.48;;;22.20;;
37355;SDS011;48747;50.250;18.848;2022-10-16T21:45:02;38.28;;;23.20;;
37355;SDS011;48747;50.250;18.848;2022-10-16T21:47:10;34.30;;;23.38;;
37355;SDS011;48747;50.250;18.848;2022-10-16T21:49:18;38.15;;;22.55;;
37355;SDS011;48747;50.250;18.848;2022-10-16T21:53:41;34.73;;;21.75;;
37355;SDS011;48747;50.250;18.848;2022-10-16T21:55:40;38.33;;;22.70;;
37355;SDS011;48747;50.250;18.848;2022-10-16T21:57:47;37.45;;;22.60;;
37355;SDS011;48747;50.250;18.848;2022-10-16T21:59:55;37.53;;;21.40;;
37355;SDS011;48747;50.250;18.848;2022-10-16T22:02:02;36.03;;;21.65;;
37355;SDS011;48747;50.250;18.848;2022-10-16T22:04:08;39.55;;;22.40;;
37355;SDS011;48747;50.250;18.848;2022-10-16T22:06:16;35.48;;;22.07;;
37355;SDS011;48747;50.250;18.848;2022-10-16T22:08:37;38.83;;;22.93;;
37355;SDS011;48747;50.250;18.848;2022-10-16T22:10:32;34.70;;;22.55;;
37355;SDS011;48747;50.250;18.848;2022-10-16T22:12:44;38.92;;;23.60;;
37355;SDS011;48747;50.250;18.848;2022-10-16T22:14:50;40.52;;;24.27;;
37355;SDS011;48747;50.250;18.848;2022-10-16T22:16:58;43.23;;;23.52;;
37355;SDS011;48747;50.250;18.848;2022-10-16T22:19:00;40.38;;;24.77;;
37355;SDS011;48747;50.250;18.848;2022-10-16T22:21:14;43.45;;;24.05;;
37355;SDS011;48747;50.250;18.848;2022-10-16T22:23:15;38.05;;;24.20;;
37355;SDS011;48747;50.250;18.848;2022-10-16T22:25:22;42.25;;;24.10;;
37355;SDS011;48747;50.250;18.848;2022-10-16T22:27:25;36.80;;;23.83;;
37355;SDS011;48747;50.250;18.848;2022-10-16T22:29:27;40.75;;;24.63;;
37355;SDS011;48747;50.250;18.848;2022-10-16T22:31:37;37.05;;;22.98;;
37355;SDS011;48747;50.250;18.848;2022-10-16T22:33:51;35.05;;;23.80;;
37355;SDS011;48747;50.250;18.848;2022-10-16T22:35:58;34.10;;;22.70;;
37355;SDS011;48747;50.250;18.848;2022-10-16T22:37:59;35.52;;;22.37;;
37355;SDS011;48747;50.250;18.848;2022-10-16T22:40:06;35.90;;;23.10;;
37355;SDS011;48747;50.250;18.848;2022-10-16T22:42:16;37.80;;;22.67;;
37355;SDS011;48747;50.250;18.848;2022-10-16T22:44:23;40.00;;;22.65;;
37355;SDS011;48747;50.250;18.848;2022-10-16T22:46:30;32.67;;;22.00;;
37355;SDS011;48747;50.250;18.848;2022-10-16T22:48:39;36.95;;;22.85;;
37355;SDS011;48747;50.250;18.848;2022-10-16T22:50:42;38.08;;;23.25;;
37355;SDS011;48747;50.250;18.848;2022-10-16T22:52:48;33.28;;;22.52;;
37355;SDS011;48747;50.250;18.848;2022-10-16T22:54:54;35.10;;;21.87;;
37355;SDS011;48747;50.250;18.848;2022-10-16T22:57:00;34.35;;;22.67;;
37355;SDS011;48747;50.250;18.848;2022-10-16T22:59:13;33.98;;;22.58;;
37355;SDS011;48747;50.250;18.848;2022-10-16T23:01:18;38.95;;;21.62;;
37355;SDS011;48747;50.250;18.848;2022-10-16T23:03:25;37.20;;;22.07;;
37355;SDS011;48747;50.250;18.848;2022-10-16T23:05:32;35.78;;;21.90;;
37355;SDS011;48747;50.250;18.848;2022-10-16T23:07:36;36.35;;;22.13;;
37355;SDS011;48747;50.250;18.848;2022-10-16T23:09:48;32.98;;;21.95;;
37355;SDS011;48747;50.250;18.848;2022-10-16T23:11:51;32.05;;;21.75;;
37355;SDS011;48747;50.250;18.848;2022-10-16T23:13:57;34.08;;;22.05;;
37355;SDS011;48747;50.250;18.848;2022-10-16T23:15:59;33.20;;;21.73;;
37355;SDS011;48747;50.250;18.848;2022-10-16T23:18:12;36.17;;;22.80;;
37355;SDS011;48747;50.250;18.848;2022-10-16T23:20:26;35.60;;;22.40;;
37355;SDS011;48747;50.250;18.848;2022-10-16T23:22:21;33.28;;;21.15;;
37355;SDS011;48747;50.250;18.848;2022-10-16T23:24:22;33.53;;;20.25;;
37355;SDS011;48747;50.250;18.848;2022-10-16T23:26:30;32.65;;;20.70;;
37355;SDS011;48747;50.250;18.848;2022-10-16T23:28:35;31.50;;;21.05;;
37355;SDS011;48747;50.250;18.848;2022-10-16T23:30:41;37.83;;;21.23;;
37355;SDS011;48747;50.250;18.848;2022-10-16T23:32:44;35.30;;;22.25;;